sensor_id;sensor_type;location;lat;lon;timestamp;temperature;humidity
997;DHT22;487;50.126;8.698;2022-11-15T00:01:24;11.10;99.90
997;DHT22;487;50.126;8.698;2022-11-15T00:03:52;11.10;99.90
997;DHT22;487;50.126;8.698;2022-11-15T00:06:20;11.10;99.90
997;DHT22;487;50.126;8.698;2022-11-15T00:08:48;11.10;99.90
997;DHT22;487;50.126;8.698;2022-11-15T00:11:15;11.10;99.90
997;DHT22;487;50.126;8.698;2022-11-15T00:13:43;11.10;99.90
997;DHT22;487;50.126;8.698;2022-11-15T00:16:11;11.10;99.90
997;DHT22;487;50.126;8.698;2022-11-15T00:18:40;11.10;99.90
997;DHT22;487;50.126;8.698;2022-11-15T00:21:16;11.10;99.90
997;DHT22;487;50.126;8.698;2022-11-15T00:23:45;11.10;99.90
997;DHT22;487;50.126;8.698;2022-11-15T00:26:13;11.10;99.90
997;DHT22;487;50.126;8.698;2022-11-15T00:28:42;11.10;99.90
997;DHT22;487;50.126;8.698;2022-11-15T00:31:12;11.10;99.90
997;DHT22;487;50.126;8.698;2022-11-15T00:33:44;11.00;99.90
997;DHT22;487;50.126;8.698;2022-11-15T00:36:12;11.00;99.90
997;DHT22;487;50.126;8.698;2022-11-15T00:41:08;11.00;99.90
997;DHT22;487;50.126;8.698;2022-11-15T00:43:36;10.90;99.90
997;DHT22;487;50.126;8.698;2022-11-15T00:46:06;10.90;99.90
997;DHT22;487;50.126;8.698;2022-11-15T00:48:35;10.90;99.90
997;DHT22;487;50.126;8.698;2022-11-15T00:51:05;10.80;99.90
997;DHT22;487;50.126;8.698;2022-11-15T00:53:32;10.80;99.90
997;DHT22;487;50.126;8.698;2022-11-15T00:56:00;10.90;99.90
997;DHT22;487;50.126;8.698;2022-11-15T00:58:28;10.80;99.90
997;DHT22;487;50.126;8.698;2022-11-15T05:02:46;11.10;99.90
997;DHT22;487;50.126;8.698;2022-11-15T05:05:32;11.00;99.90
997;DHT22;487;50.126;8.698;2022-11-15T05:08:00;11.00;99.90
997;DHT22;487;50.126;8.698;2022-11-15T05:10:28;11.00;99.90
997;DHT22;487;50.126;8.698;2022-11-15T05:12:56;10.90;99.90
997;DHT22;487;50.126;8.698;2022-11-15T05:15:24;10.90;99.90
997;DHT22;487;50.126;8.698;2022-11-15T05:17:57;10.90;99.90
997;DHT22;487;50.126;8.698;2022-11-15T05:20:25;10.90;99.90
997;DHT22;487;50.126;8.698;2022-11-15T05:22:53;11.00;99.90
997;DHT22;487;50.126;8.698;2022-11-15T05:25:21;11.00;99.90
997;DHT22;487;50.126;8.698;2022-11-15T05:27:49;11.00;99.90
997;DHT22;487;50.126;8.698;2022-11-15T05:30:17;11.00;99.90
997;DHT22;487;50.126;8.698;2022-11-15T05:32:45;11.00;99.90
997;DHT22;487;50.126;8.698;2022-11-15T05:35:20;10.90;99.90
997;DHT22;487;50.126;8.698;2022-11-15T05:37:50;10.90;99.90
997;DHT22;487;50.126;8.698;2022-11-15T05:40:18;10.90;99.90
997;DHT22;487;50.126;8.698;2022-11-15T05:42:46;10.90;99.90
997;DHT22;487;50.126;8.698;2022-11-15T05:45:14;10.90;99.90
997;DHT22;487;50.126;8.698;2022-11-15T05:47:49;10.90;99.90
997;DHT22;487;50.126;8.698;2022-11-15T05:50:19;10.90;99.90
997;DHT22;487;50.126;8.698;2022-11-15T05:52:47;10.90;99.90
997;DHT22;487;50.126;8.698;2022-11-15T05:55:15;10.80;99.90
997;DHT22;487;50.126;8.698;2022-11-15T05:57:44;10.80;99.90
997;DHT22;487;50.126;8.698;2022-11-15T06:00:13;10.80;99.90
997;DHT22;487;50.126;8.698;2022-11-15T06:02:41;10.80;99.90
997;DHT22;487;50.126;8.698;2022-11-15T06:07:39;10.80;99.90
997;DHT22;487;50.126;8.698;2022-11-15T06:10:08;10.80;99.90
997;DHT22;487;50.126;8.698;2022-11-15T06:12:36;10.80;99.90
997;DHT22;487;50.126;8.698;2022-11-15T06:15:05;10.80;99.90
997;DHT22;487;50.126;8.698;2022-11-15T06:17:33;10.90;99.90
997;DHT22;487;50.126;8.698;2022-11-15T06:20:02;10.80;99.90
997;DHT22;487;50.126;8.698;2022-11-15T06:24:59;10.90;99.90
997;DHT22;487;50.126;8.698;2022-11-15T06:27:31;10.90;99.90
997;DHT22;487;50.126;8.698;2022-11-15T06:29:59;10.90;99.90
997;DHT22;487;50.126;8.698;2022-11-15T06:32:29;11.00;99.90
997;DHT22;487;50.126;8.698;2022-11-15T06:34:57;10.90;99.90
997;DHT22;487;50.126;8.698;2022-11-15T06:37:25;11.00;99.90
997;DHT22;487;50.126;8.698;2022-11-15T06:39:53;11.00;99.90
997;DHT22;487;50.126;8.698;2022-11-15T06:42:22;11.00;99.90
997;DHT22;487;50.126;8.698;2022-11-15T06:44:50;11.00;99.90
997;DHT22;487;50.126;8.698;2022-11-15T06:47:18;11.10;99.90
997;DHT22;487;50.126;8.698;2022-11-15T06:49:45;11.10;99.90
997;DHT22;487;50.126;8.698;2022-11-15T06:52:13;11.10;99.90
997;DHT22;487;50.126;8.698;2022-11-15T06:54:41;11.10;99.90
997;DHT22;487;50.126;8.698;2022-11-15T06:57:09;11.10;99.90
997;DHT22;487;50.126;8.698;2022-11-15T06:59:38;11.10;99.90
997;DHT22;487;50.126;8.698;2022-11-15T07:02:12;11.10;99.90
997;DHT22;487;50.126;8.698;2022-11-15T07:04:40;11.20;99.90
997;DHT22;487;50.126;8.698;2022-11-15T07:07:08;11.20;99.90
997;DHT22;487;50.126;8.698;2022-11-15T07:09:36;11.20;99.90
997;DHT22;487;50.126;8.698;2022-11-15T07:12:04;11.20;99.90
997;DHT22;487;50.126;8.698;2022-11-15T07:14:34;11.30;99.90
997;DHT22;487;50.126;8.698;2022-11-15T07:19:32;11.30;99.90
997;DHT22;487;50.126;8.698;2022-11-15T07:22:00;11.40;99.90
997;DHT22;487;50.126;8.698;2022-11-15T07:24:28;11.40;99.90
997;DHT22;487;50.126;8.698;2022-11-15T07:26:57;11.40;99.90
997;DHT22;487;50.126;8.698;2022-11-15T07:29:25;11.40;99.90
997;DHT22;487;50.126;8.698;2022-11-15T07:31:53;11.50;99.90
997;DHT22;487;50.126;8.698;2022-11-15T07:34:22;11.50;99.90
997;DHT22;487;50.126;8.698;2022-11-15T07:39:19;11.50;99.90
997;DHT22;487;50.126;8.698;2022-11-15T07:41:47;11.50;99.90
997;DHT22;487;50.126;8.698;2022-11-15T07:44:15;11.50;99.90
997;DHT22;487;50.126;8.698;2022-11-15T07:49:12;11.50;99.90
997;DHT22;487;50.126;8.698;2022-11-15T07:51:44;11.50;99.90
997;DHT22;487;50.126;8.698;2022-11-15T07:54:11;11.50;99.90
997;DHT22;487;50.126;8.698;2022-11-15T07:56:39;11.60;99.90
997;DHT22;487;50.126;8.698;2022-11-15T07:59:08;11.50;99.90
997;DHT22;487;50.126;8.698;2022-11-15T08:01:35;11.50;99.90
997;DHT22;487;50.126;8.698;2022-11-15T08:04:04;11.50;99.90
997;DHT22;487;50.126;8.698;2022-11-15T08:06:31;11.60;99.90
997;DHT22;487;50.126;8.698;2022-11-15T08:11:29;11.60;99.90
997;DHT22;487;50.126;8.698;2022-11-15T08:13:58;11.60;99.90
997;DHT22;487;50.126;8.698;2022-11-15T08:16:26;11.70;99.90
997;DHT22;487;50.126;8.698;2022-11-15T08:21:25;11.90;99.90
997;DHT22;487;50.126;8.698;2022-11-15T08:23:53;11.80;99.90
997;DHT22;487;50.126;8.698;2022-11-15T08:26:22;12.00;99.90
997;DHT22;487;50.126;8.698;2022-11-15T08:28:51;12.00;99.90
997;DHT22;487;50.126;8.698;2022-11-15T08:31:19;12.10;99.90
997;DHT22;487;50.126;8.698;2022-11-15T08:33:47;12.10;99.90
997;DHT22;487;50.126;8.698;2022-11-15T08:36:16;12.20;99.90
997;DHT22;487;50.126;8.698;2022-11-15T08:38:44;12.20;99.90
997;DHT22;487;50.126;8.698;2022-11-15T08:41:16;12.20;99.90
997;DHT22;487;50.126;8.698;2022-11-15T08:43:48;12.30;99.90
997;DHT22;487;50.126;8.698;2022-11-15T08:46:16;12.30;99.90
997;DHT22;487;50.126;8.698;2022-11-15T08:48:45;12.30;99.90
997;DHT22;487;50.126;8.698;2022-11-15T08:51:13;12.40;99.90
997;DHT22;487;50.126;8.698;2022-11-15T08:53:41;12.40;99.90
997;DHT22;487;50.126;8.698;2022-11-15T08:56:10;12.50;99.90
997;DHT22;487;50.126;8.698;2022-11-15T08:58:39;12.50;99.90
997;DHT22;487;50.126;8.698;2022-11-15T09:01:15;12.40;99.90
997;DHT22;487;50.126;8.698;2022-11-15T09:03:44;12.50;99.90
997;DHT22;487;50.126;8.698;2022-11-15T09:06:12;12.60;99.90
997;DHT22;487;50.126;8.698;2022-11-15T09:11:17;12.60;99.90
997;DHT22;487;50.126;8.698;2022-11-15T09:13:47;12.60;99.90
997;DHT22;487;50.126;8.698;2022-11-15T09:16:16;12.70;99.90
997;DHT22;487;50.126;8.698;2022-11-15T09:18:44;12.70;99.90
997;DHT22;487;50.126;8.698;2022-11-15T09:21:12;12.70;99.90
997;DHT22;487;50.126;8.698;2022-11-15T09:23:40;12.80;99.90
997;DHT22;487;50.126;8.698;2022-11-15T09:26:08;12.90;99.90
997;DHT22;487;50.126;8.698;2022-11-15T09:28:37;12.90;99.90
997;DHT22;487;50.126;8.698;2022-11-15T09:31:08;13.00;99.90
997;DHT22;487;50.126;8.698;2022-11-15T09:36:07;13.10;99.90
997;DHT22;487;50.126;8.698;2022-11-15T09:38:36;13.10;99.90
997;DHT22;487;50.126;8.698;2022-11-15T09:41:28;13.10;99.90
997;DHT22;487;50.126;8.698;2022-11-15T09:44:07;13.10;99.90
997;DHT22;487;50.126;8.698;2022-11-15T09:46:48;13.10;99.90
997;DHT22;487;50.126;8.698;2022-11-15T09:49:20;13.20;99.90
997;DHT22;487;50.126;8.698;2022-11-15T09:51:50;13.20;99.90
997;DHT22;487;50.126;8.698;2022-11-15T09:54:26;13.20;99.90
997;DHT22;487;50.126;8.698;2022-11-15T09:57:17;13.20;99.90
997;DHT22;487;50.126;8.698;2022-11-15T09:59:55;13.30;99.90
997;DHT22;487;50.126;8.698;2022-11-15T10:05:40;13.50;99.90
997;DHT22;487;50.126;8.698;2022-11-15T10:08:22;13.60;99.90
997;DHT22;487;50.126;8.698;2022-11-15T10:11:01;13.60;99.90
997;DHT22;487;50.126;8.698;2022-11-15T10:13:51;13.70;99.90
997;DHT22;487;50.126;8.698;2022-11-15T10:16:30;13.90;99.90
997;DHT22;487;50.126;8.698;2022-11-15T10:19:10;13.90;99.90
997;DHT22;487;50.126;8.698;2022-11-15T10:21:51;14.00;99.90
997;DHT22;487;50.126;8.698;2022-11-15T10:24:34;14.20;99.90
997;DHT22;487;50.126;8.698;2022-11-15T10:27:08;14.20;99.90
997;DHT22;487;50.126;8.698;2022-11-15T10:29:42;14.20;99.90
997;DHT22;487;50.126;8.698;2022-11-15T10:32:12;14.30;99.90
997;DHT22;487;50.126;8.698;2022-11-15T10:35:22;14.30;99.90
997;DHT22;487;50.126;8.698;2022-11-15T10:37:52;14.30;99.90
997;DHT22;487;50.126;8.698;2022-11-15T10:40:24;14.30;99.90
997;DHT22;487;50.126;8.698;2022-11-15T10:43:12;15.90;99.90
997;DHT22;487;50.126;8.698;2022-11-15T10:45:41;14.20;99.90
997;DHT22;487;50.126;8.698;2022-11-15T10:48:21;14.20;99.90
997;DHT22;487;50.126;8.698;2022-11-15T10:50:50;14.20;99.90
997;DHT22;487;50.126;8.698;2022-11-15T10:53:24;14.20;99.90
997;DHT22;487;50.126;8.698;2022-11-15T10:55:55;14.20;99.90
997;DHT22;487;50.126;8.698;2022-11-15T10:58:32;14.20;99.90
997;DHT22;487;50.126;8.698;2022-11-15T11:01:13;14.20;99.90
997;DHT22;487;50.126;8.698;2022-11-15T11:03:43;14.20;99.90
997;DHT22;487;50.126;8.698;2022-11-15T11:06:13;14.30;99.90
997;DHT22;487;50.126;8.698;2022-11-15T11:08:54;14.30;99.90
997;DHT22;487;50.126;8.698;2022-11-15T11:11:22;14.30;99.90
997;DHT22;487;50.126;8.698;2022-11-15T11:13:51;14.40;99.90
997;DHT22;487;50.126;8.698;2022-11-15T11:16:41;14.40;99.90
997;DHT22;487;50.126;8.698;2022-11-15T11:19:37;14.40;99.90
997;DHT22;487;50.126;8.698;2022-11-15T11:22:15;14.40;99.90
997;DHT22;487;50.126;8.698;2022-11-15T11:24:54;14.50;99.90
997;DHT22;487;50.126;8.698;2022-11-15T11:30:09;14.60;99.90
997;DHT22;487;50.126;8.698;2022-11-15T11:32:53;14.60;99.90
997;DHT22;487;50.126;8.698;2022-11-15T11:35:27;14.60;99.90
997;DHT22;487;50.126;8.698;2022-11-15T11:38:06;14.60;99.90
997;DHT22;487;50.126;8.698;2022-11-15T11:40:51;14.60;99.90
997;DHT22;487;50.126;8.698;2022-11-15T11:43:26;14.60;99.90
997;DHT22;487;50.126;8.698;2022-11-15T11:46:08;14.60;99.90
997;DHT22;487;50.126;8.698;2022-11-15T11:48:41;14.60;99.90
997;DHT22;487;50.126;8.698;2022-11-15T11:51:15;14.60;99.90
997;DHT22;487;50.126;8.698;2022-11-15T11:53:49;14.60;99.90
997;DHT22;487;50.126;8.698;2022-11-15T11:56:26;14.70;99.90
997;DHT22;487;50.126;8.698;2022-11-15T11:59:00;14.70;99.90
997;DHT22;487;50.126;8.698;2022-11-15T12:01:33;14.70;99.90
997;DHT22;487;50.126;8.698;2022-11-15T12:04:08;14.70;99.90
997;DHT22;487;50.126;8.698;2022-11-15T12:06:42;14.70;99.90
997;DHT22;487;50.126;8.698;2022-11-15T12:09:14;14.70;99.90
997;DHT22;487;50.126;8.698;2022-11-15T12:11:51;14.70;99.90
997;DHT22;487;50.126;8.698;2022-11-15T12:14:27;14.70;99.90
997;DHT22;487;50.126;8.698;2022-11-15T12:16:57;14.70;99.90
997;DHT22;487;50.126;8.698;2022-11-15T12:19:25;14.70;99.90
997;DHT22;487;50.126;8.698;2022-11-15T12:22:00;14.80;99.90
997;DHT22;487;50.126;8.698;2022-11-15T12:24:32;14.80;99.90
997;DHT22;487;50.126;8.698;2022-11-15T12:27:08;14.80;99.90
997;DHT22;487;50.126;8.698;2022-11-15T12:29:45;14.80;99.90
997;DHT22;487;50.126;8.698;2022-11-15T12:32:24;14.80;99.90
997;DHT22;487;50.126;8.698;2022-11-15T12:34:53;14.80;99.90
997;DHT22;487;50.126;8.698;2022-11-15T12:37:48;14.80;99.90
997;DHT22;487;50.126;8.698;2022-11-15T12:40:22;14.80;99.90
997;DHT22;487;50.126;8.698;2022-11-15T12:43:03;14.80;99.90
997;DHT22;487;50.126;8.698;2022-11-15T12:45:33;14.80;99.90
997;DHT22;487;50.126;8.698;2022-11-15T12:51:07;14.80;99.90
997;DHT22;487;50.126;8.698;2022-11-15T12:53:35;14.70;99.90
997;DHT22;487;50.126;8.698;2022-11-15T12:56:24;14.60;99.90
997;DHT22;487;50.126;8.698;2022-11-15T12:58:56;14.60;99.90
997;DHT22;487;50.126;8.698;2022-11-15T13:01:58;15.30;99.90
997;DHT22;487;50.126;8.698;2022-11-15T13:04:28;14.70;99.90
997;DHT22;487;50.126;8.698;2022-11-15T13:06:58;14.70;99.90
997;DHT22;487;50.126;8.698;2022-11-15T13:09:50;14.70;99.90
997;DHT22;487;50.126;8.698;2022-11-15T13:12:53;14.70;99.90
997;DHT22;487;50.126;8.698;2022-11-15T13:15:53;14.70;99.90
997;DHT22;487;50.126;8.698;2022-11-15T13:18:37;14.70;99.90
997;DHT22;487;50.126;8.698;2022-11-15T13:21:22;14.80;99.90
997;DHT22;487;50.126;8.698;2022-11-15T13:24:13;14.80;99.90
997;DHT22;487;50.126;8.698;2022-11-15T13:26:42;14.80;99.90
997;DHT22;487;50.126;8.698;2022-11-15T13:29:16;14.80;99.90
997;DHT22;487;50.126;8.698;2022-11-15T13:31:47;14.80;99.90
997;DHT22;487;50.126;8.698;2022-11-15T13:34:23;14.80;99.90
997;DHT22;487;50.126;8.698;2022-11-15T13:37:28;14.80;99.90
997;DHT22;487;50.126;8.698;2022-11-15T13:40:22;14.90;99.90
997;DHT22;487;50.126;8.698;2022-11-15T13:53:09;14.90;99.90
997;DHT22;487;50.126;8.698;2022-11-15T13:55:37;14.80;99.90
997;DHT22;487;50.126;8.698;2022-11-15T14:00:37;14.80;99.90
997;DHT22;487;50.126;8.698;2022-11-15T14:03:15;14.80;99.90
997;DHT22;487;50.126;8.698;2022-11-15T14:08:23;14.80;99.90
997;DHT22;487;50.126;8.698;2022-11-15T14:16:17;14.80;99.90
997;DHT22;487;50.126;8.698;2022-11-15T14:18:48;14.80;99.90
997;DHT22;487;50.126;8.698;2022-11-15T14:21:17;14.80;99.90
997;DHT22;487;50.126;8.698;2022-11-15T14:26:31;14.80;99.90
997;DHT22;487;50.126;8.698;2022-11-15T14:29:24;14.80;99.90
997;DHT22;487;50.126;8.698;2022-11-15T14:31:52;14.70;99.90
997;DHT22;487;50.126;8.698;2022-11-15T14:34:22;15.00;99.90
997;DHT22;487;50.126;8.698;2022-11-15T14:36:50;14.80;99.90
997;DHT22;487;50.126;8.698;2022-11-15T14:39:18;14.80;99.90
997;DHT22;487;50.126;8.698;2022-11-15T14:41:46;14.70;99.90
997;DHT22;487;50.126;8.698;2022-11-15T14:44:15;14.70;99.90
997;DHT22;487;50.126;8.698;2022-11-15T14:46:45;14.70;99.90
997;DHT22;487;50.126;8.698;2022-11-15T14:49:14;14.70;99.90
997;DHT22;487;50.126;8.698;2022-11-15T14:51:44;14.70;99.90
997;DHT22;487;50.126;8.698;2022-11-15T14:54:12;14.60;99.90
997;DHT22;487;50.126;8.698;2022-11-15T14:56:40;14.60;99.90
997;DHT22;487;50.126;8.698;2022-11-15T14:59:09;14.60;99.90
997;DHT22;487;50.126;8.698;2022-11-15T15:01:40;14.50;99.90
997;DHT22;487;50.126;8.698;2022-11-15T15:04:09;14.50;99.90
997;DHT22;487;50.126;8.698;2022-11-15T15:06:38;14.50;99.90
997;DHT22;487;50.126;8.698;2022-11-15T15:09:07;14.50;99.90
997;DHT22;487;50.126;8.698;2022-11-15T15:11:35;14.50;99.90
997;DHT22;487;50.126;8.698;2022-11-15T15:14:03;14.50;99.90
997;DHT22;487;50.126;8.698;2022-11-15T15:16:31;14.50;99.90
997;DHT22;487;50.126;8.698;2022-11-15T15:18:59;14.50;99.90
997;DHT22;487;50.126;8.698;2022-11-15T15:21:28;14.30;99.90
997;DHT22;487;50.126;8.698;2022-11-15T15:26:33;14.20;99.90
997;DHT22;487;50.126;8.698;2022-11-15T15:29:03;14.20;99.90
997;DHT22;487;50.126;8.698;2022-11-15T15:34:00;14.20;99.90
997;DHT22;487;50.126;8.698;2022-11-15T15:36:28;14.20;99.90
997;DHT22;487;50.126;8.698;2022-11-15T15:38:56;14.10;99.90
997;DHT22;487;50.126;8.698;2022-11-15T15:41:24;14.10;99.90
997;DHT22;487;50.126;8.698;2022-11-15T15:43:53;14.10;99.90
997;DHT22;487;50.126;8.698;2022-11-15T15:46:21;14.10;99.90
997;DHT22;487;50.126;8.698;2022-11-15T15:48:49;14.10;99.90
997;DHT22;487;50.126;8.698;2022-11-15T15:51:17;14.00;99.90
997;DHT22;487;50.126;8.698;2022-11-15T15:53:46;14.00;99.90
997;DHT22;487;50.126;8.698;2022-11-15T15:56:15;13.90;99.90
997;DHT22;487;50.126;8.698;2022-11-15T15:58:43;13.90;99.90
997;DHT22;487;50.126;8.698;2022-11-15T16:01:13;13.80;99.90
997;DHT22;487;50.126;8.698;2022-11-15T16:03:41;13.80;99.90
997;DHT22;487;50.126;8.698;2022-11-15T16:06:34;13.80;99.90
997;DHT22;487;50.126;8.698;2022-11-15T16:09:03;13.80;99.90
997;DHT22;487;50.126;8.698;2022-11-15T16:14:15;13.80;99.90
997;DHT22;487;50.126;8.698;2022-11-15T16:19:12;13.80;99.90
997;DHT22;487;50.126;8.698;2022-11-15T16:21:40;13.80;99.90
997;DHT22;487;50.126;8.698;2022-11-15T16:24:08;13.90;99.90
997;DHT22;487;50.126;8.698;2022-11-15T16:26:37;13.80;99.90
997;DHT22;487;50.126;8.698;2022-11-15T16:29:05;13.90;99.90
997;DHT22;487;50.126;8.698;2022-11-15T16:31:36;13.80;99.90
997;DHT22;487;50.126;8.698;2022-11-15T16:34:05;13.90;99.90
997;DHT22;487;50.126;8.698;2022-11-15T16:36:34;13.80;99.90
997;DHT22;487;50.126;8.698;2022-11-15T16:39:03;13.80;99.90
997;DHT22;487;50.126;8.698;2022-11-15T16:44:26;10.50;99.90
997;DHT22;487;50.126;8.698;2022-11-15T16:46:55;13.90;99.90
997;DHT22;487;50.126;8.698;2022-11-15T16:49:24;13.90;99.90
997;DHT22;487;50.126;8.698;2022-11-15T16:51:52;13.90;99.90
997;DHT22;487;50.126;8.698;2022-11-15T16:54:20;13.80;99.90
997;DHT22;487;50.126;8.698;2022-11-15T16:56:48;12.30;99.90
997;DHT22;487;50.126;8.698;2022-11-15T16:59:16;13.90;99.90
997;DHT22;487;50.126;8.698;2022-11-15T17:01:46;13.90;99.90
997;DHT22;487;50.126;8.698;2022-11-15T17:04:19;13.90;99.90
997;DHT22;487;50.126;8.698;2022-11-15T17:06:49;13.80;99.90
997;DHT22;487;50.126;8.698;2022-11-15T17:09:20;13.90;99.90
997;DHT22;487;50.126;8.698;2022-11-15T17:11:50;13.80;99.90
997;DHT22;487;50.126;8.698;2022-11-15T17:14:19;13.80;99.90
997;DHT22;487;50.126;8.698;2022-11-15T17:16:47;13.80;99.90
997;DHT22;487;50.126;8.698;2022-11-15T17:19:19;13.80;99.90
997;DHT22;487;50.126;8.698;2022-11-15T17:21:49;13.70;99.90
997;DHT22;487;50.126;8.698;2022-11-15T17:24:17;13.70;99.90
997;DHT22;487;50.126;8.698;2022-11-15T17:26:46;13.70;99.90
997;DHT22;487;50.126;8.698;2022-11-15T17:29:14;13.70;99.90
997;DHT22;487;50.126;8.698;2022-11-15T17:31:42;13.70;99.90
997;DHT22;487;50.126;8.698;2022-11-15T17:36:38;13.70;99.90
997;DHT22;487;50.126;8.698;2022-11-15T17:41:38;13.70;99.90
997;DHT22;487;50.126;8.698;2022-11-15T17:44:06;13.60;99.90
997;DHT22;487;50.126;8.698;2022-11-15T17:46:34;13.60;99.90
997;DHT22;487;50.126;8.698;2022-11-15T17:49:02;13.60;99.90
997;DHT22;487;50.126;8.698;2022-11-15T17:51:29;13.60;99.90
997;DHT22;487;50.126;8.698;2022-11-15T17:53:57;13.60;99.90
997;DHT22;487;50.126;8.698;2022-11-15T17:56:29;13.60;99.90
997;DHT22;487;50.126;8.698;2022-11-15T17:58:58;13.60;99.90
997;DHT22;487;50.126;8.698;2022-11-15T18:01:28;13.60;99.90
997;DHT22;487;50.126;8.698;2022-11-15T18:03:56;13.60;99.90
997;DHT22;487;50.126;8.698;2022-11-15T18:06:27;13.60;99.90
997;DHT22;487;50.126;8.698;2022-11-15T18:11:27;13.60;99.90
997;DHT22;487;50.126;8.698;2022-11-15T18:13:59;13.70;99.90
997;DHT22;487;50.126;8.698;2022-11-15T18:16:30;13.70;99.90
997;DHT22;487;50.126;8.698;2022-11-15T18:18:59;12.90;99.90
997;DHT22;487;50.126;8.698;2022-11-15T18:21:29;13.70;99.90
997;DHT22;487;50.126;8.698;2022-11-15T18:24:01;13.60;99.90
997;DHT22;487;50.126;8.698;2022-11-15T18:26:30;13.60;99.90
997;DHT22;487;50.126;8.698;2022-11-15T18:29:02;13.60;99.90
997;DHT22;487;50.126;8.698;2022-11-15T18:31:30;13.60;99.90
997;DHT22;487;50.126;8.698;2022-11-15T18:33:59;13.60;99.90
997;DHT22;487;50.126;8.698;2022-11-15T18:36:28;13.60;99.90
997;DHT22;487;50.126;8.698;2022-11-15T18:38:58;13.60;99.90
997;DHT22;487;50.126;8.698;2022-11-15T18:41:29;13.70;99.90
997;DHT22;487;50.126;8.698;2022-11-15T18:43:59;13.60;99.90
997;DHT22;487;50.126;8.698;2022-11-15T18:46:29;13.50;99.90
997;DHT22;487;50.126;8.698;2022-11-15T18:48:58;13.70;99.90
997;DHT22;487;50.126;8.698;2022-11-15T18:51:29;13.70;99.90
997;DHT22;487;50.126;8.698;2022-11-15T18:53:58;13.70;99.90
997;DHT22;487;50.126;8.698;2022-11-15T18:56:27;13.70;99.90
997;DHT22;487;50.126;8.698;2022-11-15T18:58:58;13.70;99.90
997;DHT22;487;50.126;8.698;2022-11-15T19:01:28;13.70;99.90
997;DHT22;487;50.126;8.698;2022-11-15T19:03:58;13.70;99.90
997;DHT22;487;50.126;8.698;2022-11-15T19:06:27;13.70;99.90
997;DHT22;487;50.126;8.698;2022-11-15T19:08:58;13.60;99.90
997;DHT22;487;50.126;8.698;2022-11-15T19:11:27;13.60;99.90
997;DHT22;487;50.126;8.698;2022-11-15T19:13:59;13.60;99.90
997;DHT22;487;50.126;8.698;2022-11-15T19:16:29;13.60;99.90
997;DHT22;487;50.126;8.698;2022-11-15T19:18:59;13.60;99.90
997;DHT22;487;50.126;8.698;2022-11-15T19:21:28;13.60;99.90
997;DHT22;487;50.126;8.698;2022-11-15T19:23:57;13.70;99.90
997;DHT22;487;50.126;8.698;2022-11-15T19:26:26;13.70;99.90
997;DHT22;487;50.126;8.698;2022-11-15T19:28:55;13.70;99.90
997;DHT22;487;50.126;8.698;2022-11-15T19:31:25;13.70;99.90
997;DHT22;487;50.126;8.698;2022-11-15T19:33:54;13.70;99.90
997;DHT22;487;50.126;8.698;2022-11-15T19:36:23;13.70;99.90
997;DHT22;487;50.126;8.698;2022-11-15T19:38:53;13.70;99.90
997;DHT22;487;50.126;8.698;2022-11-15T19:41:23;13.70;99.90
997;DHT22;487;50.126;8.698;2022-11-15T19:43:51;13.70;99.90
997;DHT22;487;50.126;8.698;2022-11-15T19:46:21;13.60;99.90
997;DHT22;487;50.126;8.698;2022-11-15T19:48:50;13.70;99.90
997;DHT22;487;50.126;8.698;2022-11-15T19:51:20;13.70;99.90
997;DHT22;487;50.126;8.698;2022-11-15T19:53:48;13.70;99.90
997;DHT22;487;50.126;8.698;2022-11-15T19:56:19;13.70;99.90
997;DHT22;487;50.126;8.698;2022-11-15T19:58:49;13.70;99.90
997;DHT22;487;50.126;8.698;2022-11-15T20:01:19;13.70;99.90
997;DHT22;487;50.126;8.698;2022-11-15T20:03:50;13.70;99.90
997;DHT22;487;50.126;8.698;2022-11-15T20:06:21;13.70;99.90
997;DHT22;487;50.126;8.698;2022-11-15T20:08:50;13.70;99.90
997;DHT22;487;50.126;8.698;2022-11-15T20:11:18;13.60;99.90
997;DHT22;487;50.126;8.698;2022-11-15T20:13:46;13.60;99.90
997;DHT22;487;50.126;8.698;2022-11-15T20:16:16;13.60;99.90
997;DHT22;487;50.126;8.698;2022-11-15T20:18:45;13.60;99.90
997;DHT22;487;50.126;8.698;2022-11-15T20:21:15;13.60;99.90
997;DHT22;487;50.126;8.698;2022-11-15T20:23:43;13.60;99.90
997;DHT22;487;50.126;8.698;2022-11-15T20:26:13;13.60;99.90
997;DHT22;487;50.126;8.698;2022-11-15T20:28:41;13.60;99.90
997;DHT22;487;50.126;8.698;2022-11-15T20:31:10;13.60;99.90
997;DHT22;487;50.126;8.698;2022-11-15T20:33:39;13.60;99.90
997;DHT22;487;50.126;8.698;2022-11-15T20:36:09;13.60;99.90
997;DHT22;487;50.126;8.698;2022-11-15T20:38:39;13.60;99.90
997;DHT22;487;50.126;8.698;2022-11-15T20:41:09;13.60;99.90
997;DHT22;487;50.126;8.698;2022-11-15T20:43:37;13.50;99.90
997;DHT22;487;50.126;8.698;2022-11-15T20:46:07;13.50;99.90
997;DHT22;487;50.126;8.698;2022-11-15T20:48:35;13.50;99.90
997;DHT22;487;50.126;8.698;2022-11-15T20:51:04;13.50;99.90
997;DHT22;487;50.126;8.698;2022-11-15T20:53:33;13.50;99.90
997;DHT22;487;50.126;8.698;2022-11-15T20:56:08;13.50;99.90
997;DHT22;487;50.126;8.698;2022-11-15T20:58:36;13.50;99.90
997;DHT22;487;50.126;8.698;2022-11-15T21:01:06;13.40;99.90
997;DHT22;487;50.126;8.698;2022-11-15T21:03:35;13.40;99.90
997;DHT22;487;50.126;8.698;2022-11-15T21:06:02;13.40;99.90
997;DHT22;487;50.126;8.698;2022-11-15T21:08:30;13.40;99.90
997;DHT22;487;50.126;8.698;2022-11-15T21:11:20;13.30;99.90
997;DHT22;487;50.126;8.698;2022-11-15T21:14:05;13.40;99.90
997;DHT22;487;50.126;8.698;2022-11-15T21:16:35;13.40;99.90
997;DHT22;487;50.126;8.698;2022-11-15T21:19:03;13.40;99.90
997;DHT22;487;50.126;8.698;2022-11-15T21:21:32;13.40;99.90
997;DHT22;487;50.126;8.698;2022-11-15T21:24:01;13.30;99.90
997;DHT22;487;50.126;8.698;2022-11-15T21:26:30;13.30;99.90
997;DHT22;487;50.126;8.698;2022-11-15T21:31:26;13.30;99.90
997;DHT22;487;50.126;8.698;2022-11-15T21:33:54;13.30;99.90
997;DHT22;487;50.126;8.698;2022-11-15T21:36:22;13.30;99.90
997;DHT22;487;50.126;8.698;2022-11-15T21:38:51;13.30;99.90
997;DHT22;487;50.126;8.698;2022-11-15T21:41:19;13.30;99.90
997;DHT22;487;50.126;8.698;2022-11-15T21:43:48;13.30;99.90
997;DHT22;487;50.126;8.698;2022-11-15T21:46:16;13.30;99.90
997;DHT22;487;50.126;8.698;2022-11-15T21:48:44;13.30;99.90
997;DHT22;487;50.126;8.698;2022-11-15T21:51:12;13.30;99.90
997;DHT22;487;50.126;8.698;2022-11-15T21:53:39;13.20;99.90
997;DHT22;487;50.126;8.698;2022-11-15T21:56:08;13.20;99.90
997;DHT22;487;50.126;8.698;2022-11-15T21:58:37;13.20;99.90
997;DHT22;487;50.126;8.698;2022-11-15T22:01:09;13.30;99.90
997;DHT22;487;50.126;8.698;2022-11-15T22:03:55;13.30;99.90
997;DHT22;487;50.126;8.698;2022-11-15T22:06:23;13.30;99.90
997;DHT22;487;50.126;8.698;2022-11-15T22:08:51;13.30;99.90
997;DHT22;487;50.126;8.698;2022-11-15T22:11:18;13.30;99.90
997;DHT22;487;50.126;8.698;2022-11-15T22:13:46;13.20;99.90
997;DHT22;487;50.126;8.698;2022-11-15T22:16:15;13.20;99.90
997;DHT22;487;50.126;8.698;2022-11-15T22:18:43;13.20;99.90
997;DHT22;487;50.126;8.698;2022-11-15T22:21:13;13.20;99.90
997;DHT22;487;50.126;8.698;2022-11-15T22:23:41;13.20;99.90